sensor_id;sensor_type;location;lat;lon;timestamp;temperature;humidity
22779;DHT22;11556;51.194;3.800;2023-08-24T00:02:03;19.90;99.90
22779;DHT22;11556;51.194;3.800;2023-08-24T00:04:29;20.00;99.90
22779;DHT22;11556;51.194;3.800;2023-08-24T00:06:55;20.00;99.90
22779;DHT22;11556;51.194;3.800;2023-08-24T00:09:20;20.00;99.90
22779;DHT22;11556;51.194;3.800;2023-08-24T00:11:46;20.00;99.90
22779;DHT22;11556;51.194;3.800;2023-08-24T00:14:12;20.10;99.90
22779;DHT22;11556;51.194;3.800;2023-08-24T00:16:38;20.10;99.90
22779;DHT22;11556;51.194;3.800;2023-08-24T00:19:04;20.20;99.90
22779;DHT22;11556;51.194;3.800;2023-08-24T00:21:30;20.30;99.90
22779;DHT22;11556;51.194;3.800;2023-08-24T00:23:56;20.30;99.90
22779;DHT22;11556;51.194;3.800;2023-08-24T00:26:21;20.30;99.90
22779;DHT22;11556;51.194;3.800;2023-08-24T00:28:47;20.30;99.90
22779;DHT22;11556;51.194;3.800;2023-08-24T00:31:14;20.30;99.90
22779;DHT22;11556;51.194;3.800;2023-08-24T00:33:40;20.30;99.90
22779;DHT22;11556;51.194;3.800;2023-08-24T00:36:06;20.30;99.90
22779;DHT22;11556;51.194;3.800;2023-08-24T00:38:32;20.30;99.90
22779;DHT22;11556;51.194;3.800;2023-08-24T00:40:58;20.30;99.90
22779;DHT22;11556;51.194;3.800;2023-08-24T00:43:27;20.30;99.90
22779;DHT22;11556;51.194;3.800;2023-08-24T00:45:59;20.40;99.90
22779;DHT22;11556;51.194;3.800;2023-08-24T00:48:27;20.40;99.90
22779;DHT22;11556;51.194;3.800;2023-08-24T00:50:59;20.30;99.90
22779;DHT22;11556;51.194;3.800;2023-08-24T00:53:25;20.30;99.90
22779;DHT22;11556;51.194;3.800;2023-08-24T00:55:52;20.30;99.90
22779;DHT22;11556;51.194;3.800;2023-08-24T00:58:19;20.10;99.90
22779;DHT22;11556;51.194;3.800;2023-08-24T01:00:45;20.00;99.90
22779;DHT22;11556;51.194;3.800;2023-08-24T01:03:11;20.10;99.90
22779;DHT22;11556;51.194;3.800;2023-08-24T01:05:36;20.10;99.90
22779;DHT22;11556;51.194;3.800;2023-08-24T01:08:03;20.10;99.90
22779;DHT22;11556;51.194;3.800;2023-08-24T01:16:13;20.10;99.90
22779;DHT22;11556;51.194;3.800;2023-08-24T01:18:41;19.80;99.90
22779;DHT22;11556;51.194;3.800;2023-08-24T01:21:08;19.80;99.90
22779;DHT22;11556;51.194;3.800;2023-08-24T01:23:36;19.80;99.90
22779;DHT22;11556;51.194;3.800;2023-08-24T01:26:17;19.90;99.90
22779;DHT22;11556;51.194;3.800;2023-08-24T01:28:44;20.00;99.90
22779;DHT22;11556;51.194;3.800;2023-08-24T01:31:10;20.20;99.90
22779;DHT22;11556;51.194;3.800;2023-08-24T01:33:36;20.30;99.90
22779;DHT22;11556;51.194;3.800;2023-08-24T01:36:01;20.20;99.90
22779;DHT22;11556;51.194;3.800;2023-08-24T01:38:28;20.20;99.90
22779;DHT22;11556;51.194;3.800;2023-08-24T01:41:22;19.90;99.90
22779;DHT22;11556;51.194;3.800;2023-08-24T01:43:54;19.80;99.90
22779;DHT22;11556;51.194;3.800;2023-08-24T01:46:23;19.50;99.90
22779;DHT22;11556;51.194;3.800;2023-08-24T01:48:50;19.20;99.90
22779;DHT22;11556;51.194;3.800;2023-08-24T01:51:17;19.20;99.90
22779;DHT22;11556;51.194;3.800;2023-08-24T01:53:43;19.10;99.90
22779;DHT22;11556;51.194;3.800;2023-08-24T01:56:13;19.10;99.90
22779;DHT22;11556;51.194;3.800;2023-08-24T01:58:39;19.10;99.90
22779;DHT22;11556;51.194;3.800;2023-08-24T02:01:05;19.00;99.90
22779;DHT22;11556;51.194;3.800;2023-08-24T02:03:31;19.00;99.90
22779;DHT22;11556;51.194;3.800;2023-08-24T02:05:57;19.00;99.90
22779;DHT22;11556;51.194;3.800;2023-08-24T02:08:22;19.00;99.90
22779;DHT22;11556;51.194;3.800;2023-08-24T02:10:48;19.00;99.90
22779;DHT22;11556;51.194;3.800;2023-08-24T02:13:14;19.10;99.90
22779;DHT22;11556;51.194;3.800;2023-08-24T02:15:39;19.10;99.90
22779;DHT22;11556;51.194;3.800;2023-08-24T02:18:06;19.00;99.90
22779;DHT22;11556;51.194;3.800;2023-08-24T02:20:38;19.00;99.90
22779;DHT22;11556;51.194;3.800;2023-08-24T02:23:05;19.10;99.90
22779;DHT22;11556;51.194;3.800;2023-08-24T02:25:31;19.10;99.90
22779;DHT22;11556;51.194;3.800;2023-08-24T02:27:57;19.20;99.90
22779;DHT22;11556;51.194;3.800;2023-08-24T02:30:23;19.20;99.90
22779;DHT22;11556;51.194;3.800;2023-08-24T02:32:49;19.20;99.90
22779;DHT22;11556;51.194;3.800;2023-08-24T02:35:15;19.20;99.90
22779;DHT22;11556;51.194;3.800;2023-08-24T02:37:40;19.20;99.90
22779;DHT22;11556;51.194;3.800;2023-08-24T02:40:06;19.20;99.90
22779;DHT22;11556;51.194;3.800;2023-08-24T02:42:34;19.10;99.90
22779;DHT22;11556;51.194;3.800;2023-08-24T02:45:00;19.20;99.90
22779;DHT22;11556;51.194;3.800;2023-08-24T02:47:26;19.10;99.90
22779;DHT22;11556;51.194;3.800;2023-08-24T02:49:51;19.20;99.90
22779;DHT22;11556;51.194;3.800;2023-08-24T02:52:17;19.10;99.90
22779;DHT22;11556;51.194;3.800;2023-08-24T02:54:43;19.10;99.90
22779;DHT22;11556;51.194;3.800;2023-08-24T02:57:09;19.10;99.90
22779;DHT22;11556;51.194;3.800;2023-08-24T02:59:34;19.10;99.90
22779;DHT22;11556;51.194;3.800;2023-08-24T03:02:00;19.20;99.90
22779;DHT22;11556;51.194;3.800;2023-08-24T03:04:26;19.20;99.90
22779;DHT22;11556;51.194;3.800;2023-08-24T03:06:52;19.20;99.90
22779;DHT22;11556;51.194;3.800;2023-08-24T03:09:18;19.20;99.90
22779;DHT22;11556;51.194;3.800;2023-08-24T03:11:44;19.20;99.90
22779;DHT22;11556;51.194;3.800;2023-08-24T03:14:09;19.20;99.90
22779;DHT22;11556;51.194;3.800;2023-08-24T03:16:37;19.30;99.90
22779;DHT22;11556;51.194;3.800;2023-08-24T03:19:03;19.30;99.90
22779;DHT22;11556;51.194;3.800;2023-08-24T03:21:29;19.30;99.90
22779;DHT22;11556;51.194;3.800;2023-08-24T03:23:55;19.30;99.90
22779;DHT22;11556;51.194;3.800;2023-08-24T03:26:21;19.30;99.90
22779;DHT22;11556;51.194;3.800;2023-08-24T03:28:49;19.50;99.90
22779;DHT22;11556;51.194;3.800;2023-08-24T03:31:14;19.60;99.90
22779;DHT22;11556;51.194;3.800;2023-08-24T03:33:40;19.70;99.90
22779;DHT22;11556;51.194;3.800;2023-08-24T03:36:06;19.80;99.90
22779;DHT22;11556;51.194;3.800;2023-08-24T03:38:32;19.60;99.90
22779;DHT22;11556;51.194;3.800;2023-08-24T03:41:04;19.60;99.90
22779;DHT22;11556;51.194;3.800;2023-08-24T03:43:32;19.70;99.90
22779;DHT22;11556;51.194;3.800;2023-08-24T03:45:59;19.70;99.90
22779;DHT22;11556;51.194;3.800;2023-08-24T03:48:24;19.70;99.90
22779;DHT22;11556;51.194;3.800;2023-08-24T03:50:53;19.70;99.90
22779;DHT22;11556;51.194;3.800;2023-08-24T03:53:19;19.50;99.90
22779;DHT22;11556;51.194;3.800;2023-08-24T03:55:50;19.30;99.90
22779;DHT22;11556;51.194;3.800;2023-08-24T03:58:16;19.40;99.90
22779;DHT22;11556;51.194;3.800;2023-08-24T04:00:43;19.40;99.90
22779;DHT22;11556;51.194;3.800;2023-08-24T04:03:09;19.40;99.90
22779;DHT22;11556;51.194;3.800;2023-08-24T04:05:34;19.40;99.90
22779;DHT22;11556;51.194;3.800;2023-08-24T04:08:00;19.40;99.90
22779;DHT22;11556;51.194;3.800;2023-08-24T04:10:26;19.30;99.90
22779;DHT22;11556;51.194;3.800;2023-08-24T04:12:52;19.30;99.90
22779;DHT22;11556;51.194;3.800;2023-08-24T04:15:18;19.30;99.90
22779;DHT22;11556;51.194;3.800;2023-08-24T04:17:44;19.10;99.90
22779;DHT22;11556;51.194;3.800;2023-08-24T04:20:11;19.10;99.90
22779;DHT22;11556;51.194;3.800;2023-08-24T04:22:36;19.20;99.90
22779;DHT22;11556;51.194;3.800;2023-08-24T04:25:02;19.20;99.90
22779;DHT22;11556;51.194;3.800;2023-08-24T04:27:28;19.20;99.90
22779;DHT22;11556;51.194;3.800;2023-08-24T04:29:54;19.20;99.90
22779;DHT22;11556;51.194;3.800;2023-08-24T04:32:20;19.20;99.90
22779;DHT22;11556;51.194;3.800;2023-08-24T04:34:45;19.30;99.90
22779;DHT22;11556;51.194;3.800;2023-08-24T04:37:11;19.30;99.90
22779;DHT22;11556;51.194;3.800;2023-08-24T04:39:37;19.20;99.90
22779;DHT22;11556;51.194;3.800;2023-08-24T04:42:03;19.20;99.90
22779;DHT22;11556;51.194;3.800;2023-08-24T04:44:28;19.00;99.90
22779;DHT22;11556;51.194;3.800;2023-08-24T04:46:54;18.90;99.90
22779;DHT22;11556;51.194;3.800;2023-08-24T04:49:20;18.80;99.90
22779;DHT22;11556;51.194;3.800;2023-08-24T04:51:45;18.90;99.90
22779;DHT22;11556;51.194;3.800;2023-08-24T04:54:11;18.80;99.90
22779;DHT22;11556;51.194;3.800;2023-08-24T04:56:37;18.70;99.90
22779;DHT22;11556;51.194;3.800;2023-08-24T04:59:03;18.70;99.90
22779;DHT22;11556;51.194;3.800;2023-08-24T05:01:29;18.80;99.90
22779;DHT22;11556;51.194;3.800;2023-08-24T05:03:57;18.80;99.90
22779;DHT22;11556;51.194;3.800;2023-08-24T05:06:23;18.70;99.90
22779;DHT22;11556;51.194;3.800;2023-08-24T05:08:48;18.60;99.90
22779;DHT22;11556;51.194;3.800;2023-08-24T05:11:17;18.70;99.90
22779;DHT22;11556;51.194;3.800;2023-08-24T05:13:44;18.80;99.90
22779;DHT22;11556;51.194;3.800;2023-08-24T05:16:10;18.90;99.90
22779;DHT22;11556;51.194;3.800;2023-08-24T05:18:35;18.90;99.90
22779;DHT22;11556;51.194;3.800;2023-08-24T05:21:02;19.00;99.90
22779;DHT22;11556;51.194;3.800;2023-08-24T05:23:31;19.10;99.90
22779;DHT22;11556;51.194;3.800;2023-08-24T05:25:57;19.20;99.90
22779;DHT22;11556;51.194;3.800;2023-08-24T05:28:27;19.30;99.90
22779;DHT22;11556;51.194;3.800;2023-08-24T05:30:53;19.40;99.90
22779;DHT22;11556;51.194;3.800;2023-08-24T05:33:23;19.50;99.90
22779;DHT22;11556;51.194;3.800;2023-08-24T05:35:49;19.40;99.90
22779;DHT22;11556;51.194;3.800;2023-08-24T05:38:15;19.60;99.90
22779;DHT22;11556;51.194;3.800;2023-08-24T05:40:42;19.70;99.90
22779;DHT22;11556;51.194;3.800;2023-08-24T05:43:09;19.80;99.90
22779;DHT22;11556;51.194;3.800;2023-08-24T05:45:35;19.80;99.90
22779;DHT22;11556;51.194;3.800;2023-08-24T05:48:01;20.10;99.90
22779;DHT22;11556;51.194;3.800;2023-08-24T05:50:27;20.20;99.90
22779;DHT22;11556;51.194;3.800;2023-08-24T05:52:53;20.30;99.90
22779;DHT22;11556;51.194;3.800;2023-08-24T05:55:19;20.70;99.90
22779;DHT22;11556;51.194;3.800;2023-08-24T05:57:45;21.10;99.90
22779;DHT22;11556;51.194;3.800;2023-08-24T06:00:11;21.90;99.90
22779;DHT22;11556;51.194;3.800;2023-08-24T06:02:37;23.00;99.90
22779;DHT22;11556;51.194;3.800;2023-08-24T06:05:03;23.80;99.90
22779;DHT22;11556;51.194;3.800;2023-08-24T06:07:32;24.20;99.90
22779;DHT22;11556;51.194;3.800;2023-08-24T06:09:58;25.10;99.90
22779;DHT22;11556;51.194;3.800;2023-08-24T06:12:24;25.50;99.90
22779;DHT22;11556;51.194;3.800;2023-08-24T06:14:49;26.20;99.90
22779;DHT22;11556;51.194;3.800;2023-08-24T06:17:15;27.10;99.90
22779;DHT22;11556;51.194;3.800;2023-08-24T06:19:41;27.80;99.90
22779;DHT22;11556;51.194;3.800;2023-08-24T06:22:07;27.40;99.90
22779;DHT22;11556;51.194;3.800;2023-08-24T06:24:32;27.40;99.90
22779;DHT22;11556;51.194;3.800;2023-08-24T06:26:58;28.10;99.90
22779;DHT22;11556;51.194;3.800;2023-08-24T06:29:23;28.70;99.90
22779;DHT22;11556;51.194;3.800;2023-08-24T06:31:49;29.10;99.90
22779;DHT22;11556;51.194;3.800;2023-08-24T06:34:15;29.50;99.90
22779;DHT22;11556;51.194;3.800;2023-08-24T06:36:40;29.30;99.90
22779;DHT22;11556;51.194;3.800;2023-08-24T06:39:06;29.10;99.90
22779;DHT22;11556;51.194;3.800;2023-08-24T06:41:35;29.40;99.90
22779;DHT22;11556;51.194;3.800;2023-08-24T06:44:02;29.50;99.70
22779;DHT22;11556;51.194;3.800;2023-08-24T06:46:28;29.60;99.90
22779;DHT22;11556;51.194;3.800;2023-08-24T06:48:54;29.40;99.90
22779;DHT22;11556;51.194;3.800;2023-08-24T06:51:20;28.90;99.90
22779;DHT22;11556;51.194;3.800;2023-08-24T06:53:46;28.20;99.90
22779;DHT22;11556;51.194;3.800;2023-08-24T06:56:14;28.20;99.90
22779;DHT22;11556;51.194;3.800;2023-08-24T06:58:40;28.30;99.90
22779;DHT22;11556;51.194;3.800;2023-08-24T07:01:06;27.60;99.90
22779;DHT22;11556;51.194;3.800;2023-08-24T07:03:33;27.10;99.90
22779;DHT22;11556;51.194;3.800;2023-08-24T07:05:59;26.80;99.90
22779;DHT22;11556;51.194;3.800;2023-08-24T07:08:25;26.40;99.90
22779;DHT22;11556;51.194;3.800;2023-08-24T07:10:51;25.90;99.90
22779;DHT22;11556;51.194;3.800;2023-08-24T07:13:17;25.60;99.90
22779;DHT22;11556;51.194;3.800;2023-08-24T07:15:43;25.60;99.90
22779;DHT22;11556;51.194;3.800;2023-08-24T07:18:08;25.60;99.90
22779;DHT22;11556;51.194;3.800;2023-08-24T07:20:34;25.60;99.90
22779;DHT22;11556;51.194;3.800;2023-08-24T07:23:00;25.50;99.90
22779;DHT22;11556;51.194;3.800;2023-08-24T07:25:26;25.60;99.90
22779;DHT22;11556;51.194;3.800;2023-08-24T07:27:53;25.50;99.90
22779;DHT22;11556;51.194;3.800;2023-08-24T07:30:26;25.60;99.90
22779;DHT22;11556;51.194;3.800;2023-08-24T07:32:53;25.70;99.90
22779;DHT22;11556;51.194;3.800;2023-08-24T07:35:19;25.50;99.90
22779;DHT22;11556;51.194;3.800;2023-08-24T07:37:49;25.30;99.90
22779;DHT22;11556;51.194;3.800;2023-08-24T07:40:15;25.30;99.90
22779;DHT22;11556;51.194;3.800;2023-08-24T07:42:48;25.30;99.90
22779;DHT22;11556;51.194;3.800;2023-08-24T07:45:16;25.10;99.90
22779;DHT22;11556;51.194;3.800;2023-08-24T07:47:42;25.00;99.90
22779;DHT22;11556;51.194;3.800;2023-08-24T07:50:09;24.80;99.90
22779;DHT22;11556;51.194;3.800;2023-08-24T07:52:40;24.70;99.90
22779;DHT22;11556;51.194;3.800;2023-08-24T07:55:06;24.50;99.90
22779;DHT22;11556;51.194;3.800;2023-08-24T07:57:35;24.50;99.90
22779;DHT22;11556;51.194;3.800;2023-08-24T08:00:02;24.50;99.90
22779;DHT22;11556;51.194;3.800;2023-08-24T08:02:29;24.40;99.90
22779;DHT22;11556;51.194;3.800;2023-08-24T08:04:56;24.40;99.90
22779;DHT22;11556;51.194;3.800;2023-08-24T08:07:23;24.30;99.90
22779;DHT22;11556;51.194;3.800;2023-08-24T08:09:49;24.20;99.90
22779;DHT22;11556;51.194;3.800;2023-08-24T08:12:15;24.20;99.90
22779;DHT22;11556;51.194;3.800;2023-08-24T08:14:41;24.20;99.90
22779;DHT22;11556;51.194;3.800;2023-08-24T08:17:06;24.00;99.90
22779;DHT22;11556;51.194;3.800;2023-08-24T08:19:32;23.90;99.90
22779;DHT22;11556;51.194;3.800;2023-08-24T08:22:00;23.90;99.90
22779;DHT22;11556;51.194;3.800;2023-08-24T08:24:26;24.00;99.90
22779;DHT22;11556;51.194;3.800;2023-08-24T08:26:52;24.20;99.90
22779;DHT22;11556;51.194;3.800;2023-08-24T08:29:18;24.00;99.90
22779;DHT22;11556;51.194;3.800;2023-08-24T08:31:43;23.80;99.90
22779;DHT22;11556;51.194;3.800;2023-08-24T08:34:09;23.60;99.90
22779;DHT22;11556;51.194;3.800;2023-08-24T08:36:35;23.60;99.90
22779;DHT22;11556;51.194;3.800;2023-08-24T08:39:00;23.60;99.90
22779;DHT22;11556;51.194;3.800;2023-08-24T08:41:30;23.70;99.90
22779;DHT22;11556;51.194;3.800;2023-08-24T08:44:03;23.80;99.90
22779;DHT22;11556;51.194;3.800;2023-08-24T08:46:29;23.90;99.90
22779;DHT22;11556;51.194;3.800;2023-08-24T08:48:56;24.00;99.90
22779;DHT22;11556;51.194;3.800;2023-08-24T08:51:22;24.00;99.90
22779;DHT22;11556;51.194;3.800;2023-08-24T08:53:48;24.10;99.90
22779;DHT22;11556;51.194;3.800;2023-08-24T08:56:15;24.20;99.90
22779;DHT22;11556;51.194;3.800;2023-08-24T08:58:41;24.10;99.90
22779;DHT22;11556;51.194;3.800;2023-08-24T09:01:09;24.10;99.90
22779;DHT22;11556;51.194;3.800;2023-08-24T09:03:35;24.10;99.90
22779;DHT22;11556;51.194;3.800;2023-08-24T09:06:01;24.00;99.90
22779;DHT22;11556;51.194;3.800;2023-08-24T09:08:27;23.90;99.90
22779;DHT22;11556;51.194;3.800;2023-08-24T09:10:54;23.80;99.90
22779;DHT22;11556;51.194;3.800;2023-08-24T09:13:20;23.60;99.90
22779;DHT22;11556;51.194;3.800;2023-08-24T09:15:46;23.40;99.90
22779;DHT22;11556;51.194;3.800;2023-08-24T09:18:12;23.10;99.90
22779;DHT22;11556;51.194;3.800;2023-08-24T09:20:38;23.00;99.90
22779;DHT22;11556;51.194;3.800;2023-08-24T09:23:03;22.80;99.90
22779;DHT22;11556;51.194;3.800;2023-08-24T09:25:29;22.70;99.90
22779;DHT22;11556;51.194;3.800;2023-08-24T09:28:02;22.50;99.90
22779;DHT22;11556;51.194;3.800;2023-08-24T09:30:35;22.50;99.90
22779;DHT22;11556;51.194;3.800;2023-08-24T09:33:02;22.50;99.90
22779;DHT22;11556;51.194;3.800;2023-08-24T09:35:28;22.40;99.90
22779;DHT22;11556;51.194;3.800;2023-08-24T09:37:53;22.40;99.90
22779;DHT22;11556;51.194;3.800;2023-08-24T09:40:24;22.40;99.90
22779;DHT22;11556;51.194;3.800;2023-08-24T09:42:50;22.50;99.90
22779;DHT22;11556;51.194;3.800;2023-08-24T09:45:16;22.40;99.90
22779;DHT22;11556;51.194;3.800;2023-08-24T09:47:51;22.30;99.90
22779;DHT22;11556;51.194;3.800;2023-08-24T09:50:20;22.30;99.90
22779;DHT22;11556;51.194;3.800;2023-08-24T09:52:47;22.10;99.90
22779;DHT22;11556;51.194;3.800;2023-08-24T09:55:19;22.00;99.90
22779;DHT22;11556;51.194;3.800;2023-08-24T09:57:46;22.10;99.90
22779;DHT22;11556;51.194;3.800;2023-08-24T10:00:13;21.90;99.90
22779;DHT22;11556;51.194;3.800;2023-08-24T10:02:49;21.90;99.90
22779;DHT22;11556;51.194;3.800;2023-08-24T10:05:18;21.80;99.90
22779;DHT22;11556;51.194;3.800;2023-08-24T10:07:52;21.80;99.90
22779;DHT22;11556;51.194;3.800;2023-08-24T10:10:20;21.80;99.90
22779;DHT22;11556;51.194;3.800;2023-08-24T10:12:50;21.80;99.90
22779;DHT22;11556;51.194;3.800;2023-08-24T10:15:18;21.60;99.90
22779;DHT22;11556;51.194;3.800;2023-08-24T10:17:44;21.40;99.90
22779;DHT22;11556;51.194;3.800;2023-08-24T10:20:11;21.20;99.90
22779;DHT22;11556;51.194;3.800;2023-08-24T10:22:37;21.10;99.90
22779;DHT22;11556;51.194;3.800;2023-08-24T10:25:07;20.90;99.90
22779;DHT22;11556;51.194;3.800;2023-08-24T10:27:34;21.00;99.90
22779;DHT22;11556;51.194;3.800;2023-08-24T10:30:00;21.00;99.90
22779;DHT22;11556;51.194;3.800;2023-08-24T10:32:26;21.20;99.90
22779;DHT22;11556;51.194;3.800;2023-08-24T10:34:53;21.60;99.90
22779;DHT22;11556;51.194;3.800;2023-08-24T10:37:27;21.80;99.90
22779;DHT22;11556;51.194;3.800;2023-08-24T10:39:53;22.00;99.90
22779;DHT22;11556;51.194;3.800;2023-08-24T10:42:19;22.20;99.90
22779;DHT22;11556;51.194;3.800;2023-08-24T10:44:47;22.80;99.90
22779;DHT22;11556;51.194;3.800;2023-08-24T10:47:15;23.30;99.90
22779;DHT22;11556;51.194;3.800;2023-08-24T10:49:42;24.00;99.90
22779;DHT22;11556;51.194;3.800;2023-08-24T10:52:24;24.70;99.90
22779;DHT22;11556;51.194;3.800;2023-08-24T10:54:52;25.50;99.90
22779;DHT22;11556;51.194;3.800;2023-08-24T11:00:07;25.90;99.90
22779;DHT22;11556;51.194;3.800;2023-08-24T11:02:48;26.70;99.90
22779;DHT22;11556;51.194;3.800;2023-08-24T11:10:16;28.00;99.90
22779;DHT22;11556;51.194;3.800;2023-08-24T11:13:20;28.70;99.90
22779;DHT22;11556;51.194;3.800;2023-08-24T11:15:49;30.80;99.90
22779;DHT22;11556;51.194;3.800;2023-08-24T11:18:27;31.50;99.90
22779;DHT22;11556;51.194;3.800;2023-08-24T11:23:19;31.90;99.90
22779;DHT22;11556;51.194;3.800;2023-08-24T11:25:46;31.80;99.90
22779;DHT22;11556;51.194;3.800;2023-08-24T11:28:19;31.30;99.90
22779;DHT22;11556;51.194;3.800;2023-08-24T11:30:46;30.80;99.90
22779;DHT22;11556;51.194;3.800;2023-08-24T11:33:12;30.40;99.90
22779;DHT22;11556;51.194;3.800;2023-08-24T11:35:43;30.00;99.90
22779;DHT22;11556;51.194;3.800;2023-08-24T11:38:09;28.90;99.90
22779;DHT22;11556;51.194;3.800;2023-08-24T11:40:36;28.50;99.90
22779;DHT22;11556;51.194;3.800;2023-08-24T11:43:03;28.30;99.90
22779;DHT22;11556;51.194;3.800;2023-08-24T11:45:31;28.20;99.90
22779;DHT22;11556;51.194;3.800;2023-08-24T11:47:58;28.00;99.90
22779;DHT22;11556;51.194;3.800;2023-08-24T11:50:25;27.90;99.90
22779;DHT22;11556;51.194;3.800;2023-08-24T11:52:53;27.60;99.90
22779;DHT22;11556;51.194;3.800;2023-08-24T11:55:19;27.20;99.90
22779;DHT22;11556;51.194;3.800;2023-08-24T11:57:46;27.00;99.90
22779;DHT22;11556;51.194;3.800;2023-08-24T12:00:12;26.80;99.90
22779;DHT22;11556;51.194;3.800;2023-08-24T12:02:40;26.50;99.90
22779;DHT22;11556;51.194;3.800;2023-08-24T12:05:06;26.50;99.90
22779;DHT22;11556;51.194;3.800;2023-08-24T12:07:33;26.30;99.90
22779;DHT22;11556;51.194;3.800;2023-08-24T12:10:02;26.30;99.90
22779;DHT22;11556;51.194;3.800;2023-08-24T12:12:28;26.10;99.90
22779;DHT22;11556;51.194;3.800;2023-08-24T12:14:55;26.20;99.90
22779;DHT22;11556;51.194;3.800;2023-08-24T12:17:21;26.30;99.90
22779;DHT22;11556;51.194;3.800;2023-08-24T12:19:58;26.50;99.90
22779;DHT22;11556;51.194;3.800;2023-08-24T12:22:24;26.40;99.90
22779;DHT22;11556;51.194;3.800;2023-08-24T12:24:50;26.30;99.90
22779;DHT22;11556;51.194;3.800;2023-08-24T12:27:28;26.20;99.90
22779;DHT22;11556;51.194;3.800;2023-08-24T12:29:53;26.00;99.90
22779;DHT22;11556;51.194;3.800;2023-08-24T12:32:20;26.10;99.90
22779;DHT22;11556;51.194;3.800;2023-08-24T12:34:48;26.30;99.90
22779;DHT22;11556;51.194;3.800;2023-08-24T12:37:17;26.40;99.90
22779;DHT22;11556;51.194;3.800;2023-08-24T12:39:42;26.60;99.90
22779;DHT22;11556;51.194;3.800;2023-08-24T12:42:08;26.60;99.90
22779;DHT22;11556;51.194;3.800;2023-08-24T12:44:34;26.70;99.90
22779;DHT22;11556;51.194;3.800;2023-08-24T12:47:02;26.70;99.90
22779;DHT22;11556;51.194;3.800;2023-08-24T12:49:28;26.50;99.90
22779;DHT22;11556;51.194;3.800;2023-08-24T12:51:54;26.30;99.90
22779;DHT22;11556;51.194;3.800;2023-08-24T12:54:20;26.30;99.90
22779;DHT22;11556;51.194;3.800;2023-08-24T12:56:46;26.50;99.90
22779;DHT22;11556;51.194;3.800;2023-08-24T12:59:11;26.40;99.90
22779;DHT22;11556;51.194;3.800;2023-08-24T13:01:37;26.10;99.90
22779;DHT22;11556;51.194;3.800;2023-08-24T13:04:04;26.00;99.90
22779;DHT22;11556;51.194;3.800;2023-08-24T13:06:30;26.00;99.90
22779;DHT22;11556;51.194;3.800;2023-08-24T13:08:55;26.20;99.90
22779;DHT22;11556;51.194;3.800;2023-08-24T13:11:22;26.30;99.90
22779;DHT22;11556;51.194;3.800;2023-08-24T13:13:48;26.40;99.90
22779;DHT22;11556;51.194;3.800;2023-08-24T13:16:14;26.20;99.90
22779;DHT22;11556;51.194;3.800;2023-08-24T13:18:41;26.30;99.90
22779;DHT22;11556;51.194;3.800;2023-08-24T13:21:07;26.40;99.90
22779;DHT22;11556;51.194;3.800;2023-08-24T13:23:32;26.40;99.90
22779;DHT22;11556;51.194;3.800;2023-08-24T13:25:59;26.60;99.90
22779;DHT22;11556;51.194;3.800;2023-08-24T13:28:25;26.50;99.90
22779;DHT22;11556;51.194;3.800;2023-08-24T13:30:50;26.60;99.90
22779;DHT22;11556;51.194;3.800;2023-08-24T13:33:16;26.40;99.90
22779;DHT22;11556;51.194;3.800;2023-08-24T13:35:43;26.10;99.90
22779;DHT22;11556;51.194;3.800;2023-08-24T13:38:09;26.00;99.90
22779;DHT22;11556;51.194;3.800;2023-08-24T13:40:35;25.80;99.90
22779;DHT22;11556;51.194;3.800;2023-08-24T13:43:00;25.80;99.90
22779;DHT22;11556;51.194;3.800;2023-08-24T13:45:26;25.80;99.90
22779;DHT22;11556;51.194;3.800;2023-08-24T13:47:52;26.10;99.90
22779;DHT22;11556;51.194;3.800;2023-08-24T13:50:17;26.30;99.90
22779;DHT22;11556;51.194;3.800;2023-08-24T13:52:43;26.60;99.90
22779;DHT22;11556;51.194;3.800;2023-08-24T13:55:09;26.70;99.90
22779;DHT22;11556;51.194;3.800;2023-08-24T13:57:35;26.60;99.90
22779;DHT22;11556;51.194;3.800;2023-08-24T14:00:01;26.80;99.90
22779;DHT22;11556;51.194;3.800;2023-08-24T14:02:29;26.60;99.90
22779;DHT22;11556;51.194;3.800;2023-08-24T14:04:55;26.40;99.90
22779;DHT22;11556;51.194;3.800;2023-08-24T14:07:20;26.30;99.90
22779;DHT22;11556;51.194;3.800;2023-08-24T14:09:46;26.30;99.90
22779;DHT22;11556;51.194;3.800;2023-08-24T14:12:12;26.10;99.90
22779;DHT22;11556;51.194;3.800;2023-08-24T14:14:37;25.90;99.90
22779;DHT22;11556;51.194;3.800;2023-08-24T14:17:03;25.70;99.90
22779;DHT22;11556;51.194;3.800;2023-08-24T14:19:29;25.70;99.90
22779;DHT22;11556;51.194;3.800;2023-08-24T14:21:54;25.70;99.90
22779;DHT22;11556;51.194;3.800;2023-08-24T14:24:21;25.60;99.90
22779;DHT22;11556;51.194;3.800;2023-08-24T14:26:47;25.40;99.90
22779;DHT22;11556;51.194;3.800;2023-08-24T14:29:13;25.40;99.90
22779;DHT22;11556;51.194;3.800;2023-08-24T14:31:39;25.30;99.90
22779;DHT22;11556;51.194;3.800;2023-08-24T14:34:05;25.40;99.90
22779;DHT22;11556;51.194;3.800;2023-08-24T14:36:31;25.30;99.90
22779;DHT22;11556;51.194;3.800;2023-08-24T14:38:58;25.30;99.90
22779;DHT22;11556;51.194;3.800;2023-08-24T14:41:23;25.40;99.90
22779;DHT22;11556;51.194;3.800;2023-08-24T14:43:49;25.50;99.90
22779;DHT22;11556;51.194;3.800;2023-08-24T14:46:15;25.40;99.90
22779;DHT22;11556;51.194;3.800;2023-08-24T14:48:40;25.50;99.90
22779;DHT22;11556;51.194;3.800;2023-08-24T14:51:06;25.50;99.90
22779;DHT22;11556;51.194;3.800;2023-08-24T14:53:32;25.50;99.90
22779;DHT22;11556;51.194;3.800;2023-08-24T14:55:58;25.70;99.90
22779;DHT22;11556;51.194;3.800;2023-08-24T14:58:25;26.10;99.90
22779;DHT22;11556;51.194;3.800;2023-08-24T15:00:52;26.10;99.90
22779;DHT22;11556;51.194;3.800;2023-08-24T15:03:18;26.20;99.90
22779;DHT22;11556;51.194;3.800;2023-08-24T15:05:46;26.00;99.90
22779;DHT22;11556;51.194;3.800;2023-08-24T15:08:12;25.90;99.90
22779;DHT22;11556;51.194;3.800;2023-08-24T15:10:38;25.90;99.90
22779;DHT22;11556;51.194;3.800;2023-08-24T15:13:04;25.90;99.90
22779;DHT22;11556;51.194;3.800;2023-08-24T15:15:39;26.00;99.90
22779;DHT22;11556;51.194;3.800;2023-08-24T15:18:05;26.20;99.90
22779;DHT22;11556;51.194;3.800;2023-08-24T15:20:31;26.10;99.90
22779;DHT22;11556;51.194;3.800;2023-08-24T15:22:58;26.10;99.90
22779;DHT22;11556;51.194;3.800;2023-08-24T15:25:24;26.10;99.90
22779;DHT22;11556;51.194;3.800;2023-08-24T15:27:50;26.20;99.90
22779;DHT22;11556;51.194;3.800;2023-08-24T15:30:16;26.20;99.90
22779;DHT22;11556;51.194;3.800;2023-08-24T15:32:41;26.10;99.90
22779;DHT22;11556;51.194;3.800;2023-08-24T15:35:07;26.00;99.90
22779;DHT22;11556;51.194;3.800;2023-08-24T15:37:33;25.90;99.90
22779;DHT22;11556;51.194;3.800;2023-08-24T15:39:59;25.80;99.90
22779;DHT22;11556;51.194;3.800;2023-08-24T15:42:26;25.90;99.90
22779;DHT22;11556;51.194;3.800;2023-08-24T15:44:51;26.10;99.90